Time;durP1;ratioP1;P1;durP2;ratioP2;P2;SDS_P1;SDS_P2;PMS_P1;PMS_P2;Temp;Humidity;BMP_temperature;BMP_pressure;BME280_temperature;BME280_humidity;BME280_pressure;Samples;Min_cycle;Max_cycle;Signal;HPM_P1;HPM_P2
2022/11/19 00:01:09;;;;;;;11.65;4.80;;;-3.70;99.90;;;-5.57;98.85;100986.16;4963588;28;20022;-74
2022/11/19 00:03:37;;;;;;;9.50;4.70;;;-3.70;99.90;;;-5.56;98.87;100984.44;4965892;28;20031;-73
2022/11/19 00:06:25;;;;;;;11.45;4.70;;;-3.70;99.90;;;-5.59;98.89;100985.25;4967868;28;20022;-73
2022/11/19 00:08:51;;;;;;;12.68;4.97;;;-3.70;99.90;;;-5.57;99.05;100978.44;4965741;28;20039;-74
2022/11/19 00:14:25;;;;;;;10.10;4.35;;;-3.70;99.90;;;-5.55;99.16;100978.47;4910275;29;20491;-73
2022/11/19 00:16:51;;;;;;;9.15;4.75;;;-3.60;99.90;;;-5.53;98.84;100978.50;4917947;29;20051;-74
2022/11/19 00:19:16;;;;;;;14.02;5.60;;;-3.60;99.90;;;-5.51;99.30;100976.84;4947314;28;20100;-74
2022/11/19 00:21:42;;;;;;;9.15;4.80;;;-3.70;99.90;;;-5.51;98.94;100971.72;4964239;28;20042;-73
2022/11/19 00:24:09;;;;;;;12.10;5.53;;;-3.60;99.90;;;-5.51;98.72;100970.00;4963388;28;20030;-73
2022/11/19 00:26:35;;;;;;;10.80;4.57;;;-3.60;99.90;;;-5.50;99.16;100971.75;4966058;28;20050;-74
2022/11/19 00:29:01;;;;;;;10.00;5.45;;;-3.60;99.90;;;-5.49;98.39;100973.47;4963734;28;20526;-74
2022/11/19 00:31:26;;;;;;;11.20;5.93;;;-3.60;99.90;;;-5.50;98.97;100978.59;4981736;28;20118;-75
2022/11/19 00:33:53;;;;;;;10.85;5.38;;;-3.60;99.90;;;-5.51;98.88;100976.84;4983859;28;20046;-72
2022/11/19 00:36:21;;;;;;;14.02;5.97;;;-3.60;99.90;;;-5.42;99.73;100977.03;4963174;28;20026;-73
2022/11/19 00:38:46;;;;;;;13.43;6.10;;;-3.50;99.90;;;-5.32;100.00;100986.69;4965269;28;20384;-72
2022/11/19 00:41:12;;;;;;;9.43;5.47;;;-3.70;99.90;;;-5.20;100.00;100986.97;4967048;28;20109;-72
2022/11/19 00:43:47;;;;;;;10.68;5.22;;;-3.30;99.90;;;-5.03;100.00;100986.44;4964699;28;20117;-71
2022/11/19 00:46:27;;;;;;;11.23;5.97;;;-3.20;99.90;;;-4.83;100.00;100994.59;4965808;28;20030;-72
2022/11/19 00:48:56;;;;;;;11.88;5.28;;;-3.00;99.90;;;-4.67;100.00;100996.63;4981437;28;20542;-72
2022/11/19 00:51:25;;;;;;;9.20;5.22;;;-2.80;99.90;;;-4.48;100.00;100994.41;4946620;28;20102;-72
2022/11/19 00:53:52;;;;;;;8.35;4.45;;;-2.60;99.90;;;-4.33;100.00;100990.41;4965127;28;20038;-72
2022/11/19 00:56:21;;;;;;;9.30;4.72;;;-2.50;99.90;;;-4.14;100.00;100993.34;4950361;28;20043;-72
2022/11/19 00:58:47;;;;;;;11.68;5.10;;;-2.30;99.90;;;-3.98;100.00;100981.59;4954918;28;20113;-71
2022/11/19 01:01:15;;;;;;;8.82;4.85;;;-2.20;99.90;;;-3.88;100.00;100973.19;4978301;28;20034;-71
2022/11/19 01:03:44;;;;;;;8.68;4.20;;;-2.10;99.90;;;-3.82;100.00;100977.56;4965100;28;20027;-72
2022/11/19 01:06:10;;;;;;;9.13;4.75;;;-2.00;99.90;;;-3.75;100.00;100979.41;4965947;28;21801;-71
2022/11/19 01:08:36;;;;;;;9.55;4.20;;;-2.00;99.90;;;-3.71;100.00;100983.75;4963567;28;20030;-71
2022/11/19 01:11:13;;;;;;;7.93;4.22;;;-1.90;99.90;;;-3.68;100.00;100978.66;4979554;28;20034;-71
2022/11/19 01:13:40;;;;;;;9.75;4.60;;;-1.90;99.90;;;-3.66;100.00;100971.81;4962233;28;20101;-71
2022/11/19 01:16:22;;;;;;;6.55;3.70;;;-1.80;99.90;;;-3.61;100.00;100974.47;4965404;28;20034;-72
2022/11/19 01:18:49;;;;;;;8.45;3.67;;;-1.80;99.90;;;-3.58;100.00;100977.97;4965793;28;20034;-72
2022/11/19 01:21:18;;;;;;;9.38;3.78;;;-1.80;99.90;;;-3.54;100.00;100971.16;4946053;28;20182;-73
2022/11/19 01:23:45;;;;;;;6.35;4.10;;;-1.70;99.90;;;-3.49;100.00;100968.66;4945630;28;20029;-72
2022/11/19 01:26:12;;;;;;;7.95;3.38;;;-1.70;99.90;;;-3.47;100.00;100974.69;4980242;28;20039;-72
2022/11/19 01:28:38;;;;;;;8.02;4.22;;;-1.70;99.90;;;-3.46;100.00;100974.69;4964835;28;20031;-72
2022/11/19 01:31:12;;;;;;;6.70;3.90;;;-1.70;99.90;;;-3.42;100.00;100984.19;4979984;28;20028;-71
2022/11/19 01:33:39;;;;;;;5.07;3.35;;;-1.70;99.90;;;-3.36;100.00;100971.41;4952857;28;20047;-72
2022/11/19 01:36:11;;;;;;;6.25;3.28;;;-1.60;99.90;;;-3.26;100.00;100966.38;4963055;28;20073;-72
2022/11/19 01:38:36;;;;;;;9.25;3.85;;;-1.50;99.90;;;-3.17;99.67;100964.81;4951272;28;20034;-72
2022/11/19 01:41:03;;;;;;;5.22;2.92;;;-1.40;99.90;;;-3.07;99.55;100963.19;4957325;28;20728;-72
2022/11/19 01:43:57;;;;;;;8.23;3.95;;;-1.30;99.90;;;-2.94;99.15;100969.38;4963909;28;20689;-72
2022/11/19 01:46:30;;;;;;;6.65;3.30;;;-1.20;99.90;;;-2.86;99.15;100972.06;4963569;28;20027;-71
2022/11/19 01:49:11;;;;;;;7.40;3.78;;;-1.10;99.90;;;-2.78;99.14;100979.03;4962988;28;20496;-72
2022/11/19 01:51:51;;;;;;;6.32;3.53;;;-1.00;99.90;;;-2.73;99.05;100979.09;4967109;28;20058;-72
2022/11/19 01:54:43;;;;;;;9.05;4.05;;;-1.00;99.90;;;-2.63;99.55;100985.22;4983880;28;20038;-71
2022/11/19 01:57:15;;;;;;;9.43;3.67;;;-0.90;99.90;;;-2.56;100.00;100987.88;4959525;28;20458;-71
2022/11/19 01:59:45;;;;;;;8.80;3.47;;;-0.80;99.90;;;-2.48;100.00;100987.97;4966218;28;20030;-71
2022/11/19 02:02:12;;;;;;;6.78;3.83;;;-0.70;99.90;;;-2.37;100.00;100983.78;4952439;28;20023;-71
2022/11/19 02:04:39;;;;;;;9.05;3.70;;;-0.60;99.90;;;-2.29;100.00;100986.44;4970864;28;20418;-71
2022/11/19 02:07:08;;;;;;;5.85;3.00;;;-0.50;99.90;;;-2.23;100.00;100983.06;4975607;28;20033;-71
2022/11/19 02:09:34;;;;;;;5.32;3.22;;;-0.40;99.90;;;-2.15;100.00;100984.00;4968585;28;20069;-71
2022/11/19 02:12:26;;;;;;;5.55;3.13;;;-0.40;99.90;;;-2.06;100.00;100974.63;4966487;28;20035;-71
2022/11/19 02:15:01;;;;;;;3.45;2.22;;;-0.40;99.90;;;-2.10;100.00;100975.44;4955416;28;20557;-71
2022/11/19 02:17:54;;;;;;;4.10;2.40;;;-0.30;99.90;;;-2.12;100.00;100976.28;4971598;28;20081;-71
2022/11/19 02:20:53;;;;;;;4.13;2.80;;;-0.40;99.90;;;-2.21;100.00;100968.47;4985377;28;20039;-71
2022/11/19 02:23:46;;;;;;;5.53;2.97;;;-0.40;99.90;;;-2.17;100.00;100960.75;4983625;28;20102;-71
2022/11/19 02:26:18;;;;;;;10.10;3.78;;;-0.40;99.90;;;-2.29;100.00;100960.63;4985353;28;20031;-71
2022/11/19 02:28:58;;;;;;;4.18;2.45;;;-0.50;99.90;;;-2.40;100.00;100952.78;4985076;28;20579;-71
2022/11/19 02:31:56;;;;;;;4.10;2.15;;;-0.50;99.90;;;-2.44;100.00;100958.81;4952998;28;20455;-71
2022/11/19 02:34:38;;;;;;;2.28;1.60;;;-0.50;99.90;;;-2.43;100.00;100957.06;4969766;28;20108;-71
2022/11/19 02:37:37;;;;;;;5.45;2.17;;;-0.50;99.90;;;-2.40;100.00;100965.69;4983674;28;20046;-71
2022/11/19 02:40:14;;;;;;;6.47;2.60;;;-0.50;99.90;;;-2.36;100.00;100964.03;4969865;28;20041;-71
2022/11/19 02:43:17;;;;;;;8.85;2.85;;;-0.50;99.90;;;-2.32;100.00;100956.31;4983228;28;20041;-71
2022/11/19 02:45:50;;;;;;;5.10;2.35;;;-0.50;99.90;;;-2.33;100.00;100956.34;4967305;28;20027;-71
2022/11/19 02:48:28;;;;;;;3.55;2.13;;;-0.50;99.90;;;-2.39;100.00;100954.53;4968241;28;20388;-72
2022/11/19 02:50:59;;;;;;;4.50;2.83;;;-0.50;99.90;;;-2.37;100.00;100947.69;4964856;28;20503;-71
2022/11/19 02:53:25;;;;;;;5.90;2.20;;;-0.50;99.90;;;-2.39;100.00;100957.13;4969854;28;20621;-72
2022/11/19 02:56:09;;;;;;;5.85;2.05;;;;;;;-2.38;100.00;100956.25;4984110;28;20402;-71
2022/11/19 03:04:29;;;;;;;4.45;2.15;;;-0.30;99.90;;;-2.09;100.00;100937.63;4969479;28;20034;-71
2022/11/19 03:07:13;;;;;;;3.90;1.98;;;-0.20;99.90;;;-1.99;100.00;100941.13;4968754;28;20064;-71
2022/11/19 03:09:57;;;;;;;3.40;1.42;;;-0.20;99.90;;;-1.90;100.00;100938.63;4967608;28;20023;-71
2022/11/19 03:12:54;;;;;;;4.63;1.65;;;-0.10;99.90;;;-1.84;100.00;100935.22;4964269;28;20035;-71
2022/11/19 03:18:49;;;;;;;4.95;2.72;;;0.10;99.90;;;-1.74;100.00;100934.47;4983016;28;20137;-71
2022/11/19 03:21:23;;;;;;;4.10;2.38;;;0.10;99.90;;;-1.70;100.00;100923.28;4950856;28;20046;-71
2022/11/19 03:24:19;;;;;;;6.15;2.20;;;0.10;99.90;;;-1.66;100.00;100922.47;4981351;28;20431;-71
2022/11/19 03:26:52;;;;;;;4.85;2.63;;;0.10;99.90;;;-1.62;100.00;100918.16;4981587;28;20498;-71
2022/11/19 03:29:20;;;;;;;5.65;3.17;;;0.20;99.90;;;-1.59;100.00;100913.03;4968450;28;20045;-71
2022/11/19 03:31:53;;;;;;;3.67;2.50;;;0.20;99.90;;;-1.57;100.00;100917.34;4965645;28;20043;-71
2022/11/19 03:34:22;;;;;;;6.35;2.20;;;0.20;99.90;;;-1.55;100.00;100918.22;4966364;28;20031;-71
2022/11/19 03:36:57;;;;;;;3.35;2.00;;;0.20;99.90;;;-1.56;100.00;100916.47;4964444;28;20141;-71
2022/11/19 03:39:23;;;;;;;3.65;2.67;;;0.30;99.90;;;-1.51;100.00;100922.56;4968799;28;20038;-71
2022/11/19 03:41:52;;;;;;;4.82;2.53;;;0.30;99.90;;;-1.46;100.00;100923.44;4965440;28;20022;-72
2022/11/19 03:44:48;;;;;;;3.92;2.10;;;0.40;99.90;;;-1.40;100.00;100921.72;4965308;28;20706;-71
2022/11/19 03:47:26;;;;;;;2.85;1.63;;;0.40;99.90;;;-1.34;100.00;100929.53;4966606;28;20080;-72
2022/11/19 03:50:01;;;;;;;3.13;1.88;;;0.40;99.90;;;-1.31;100.00;100926.97;4973398;28;20074;-72
2022/11/19 03:52:27;;;;;;;3.08;1.60;;;0.50;99.90;;;-1.31;100.00;100921.81;4949692;28;20060;-71
2022/11/19 03:54:53;;;;;;;4.53;2.67;;;0.50;99.90;;;-1.27;100.00;100915.81;4966965;28;20042;-72
2022/11/19 03:57:22;;;;;;;4.53;2.50;;;0.50;99.90;;;-1.20;100.00;100914.09;4964766;28;20436;-72
2022/11/19 03:59:48;;;;;;;5.68;2.10;;;0.60;99.90;;;-1.18;100.00;100915.84;4963414;28;20061;-72
2022/11/19 04:02:15;;;;;;;5.82;2.08;;;0.70;99.90;;;-1.11;100.00;100901.22;4967317;28;20038;-72
2022/11/19 04:04:41;;;;;;;3.85;2.40;;;0.70;99.90;;;-1.07;100.00;100892.63;4967337;28;20073;-72
2022/11/19 04:07:14;;;;;;;2.78;1.20;;;0.70;99.90;;;-1.02;100.00;100906.41;4964659;28;20046;-72
2022/11/19 04:09:41;;;;;;;3.10;1.48;;;0.80;99.90;;;-1.02;100.00;100902.97;4964477;28;20045;-71
2022/11/19 04:12:18;;;;;;;1.55;1.08;;;0.80;99.90;;;-1.00;100.00;100898.69;4962567;28;20096;-72
2022/11/19 04:14:44;;;;;;;1.67;1.23;;;0.90;99.90;;;-0.95;100.00;100907.31;4969169;28;20494;-72
2022/11/19 04:17:10;;;;;;;1.52;1.27;;;0.90;99.90;;;-0.90;100.00;100903.03;4949484;28;20050;-72
2022/11/19 04:19:36;;;;;;;2.72;1.60;;;0.90;99.90;;;-0.84;100.00;100900.47;4964423;28;20034;-72
2022/11/19 04:22:02;;;;;;;1.75;0.80;;;1.00;99.90;;;-0.77;100.00;100898.75;4961865;28;20442;-72
2022/11/19 04:24:28;;;;;;;3.22;1.38;;;1.00;99.90;;;-0.75;100.00;100897.91;4966504;28;20030;-72
2022/11/19 04:26:54;;;;;;;2.20;1.08;;;1.10;99.90;;;-0.70;100.00;100909.09;4967327;28;20038;-73
2022/11/19 04:29:19;;;;;;;2.45;1.38;;;1.20;99.90;;;-0.62;100.00;100907.41;4964436;28;20034;-74
2022/11/19 04:31:45;;;;;;;1.75;1.20;;;1.20;99.90;;;-0.57;100.00;100903.97;4965995;28;20039;-72
2022/11/19 04:34:11;;;;;;;5.65;1.27;;;1.20;99.90;;;-0.52;100.00;100902.25;4963360;28;20027;-72
2022/11/19 04:36:40;;;;;;;2.33;1.67;;;1.30;99.90;;;-0.48;100.00;100903.97;4964894;28;20526;-73
2022/11/19 04:39:08;;;;;;;1.50;0.90;;;1.30;99.90;;;-0.45;100.00;100897.09;4969759;28;20050;-72
2022/11/19 04:41:35;;;;;;;1.02;0.90;;;1.30;99.90;;;-0.45;100.00;100886.75;4965859;28;20034;-72
2022/11/19 04:44:01;;;;;;;0.82;0.60;;;1.30;99.90;;;-0.46;100.00;100884.16;4982342;28;20081;-72
2022/11/19 04:46:27;;;;;;;0.93;0.60;;;1.30;99.90;;;-0.46;100.00;100881.56;4964206;28;20030;-72
2022/11/19 04:48:53;;;;;;;0.60;0.50;;;1.40;99.90;;;-0.47;100.00;100887.63;4980184;28;20030;-72
2022/11/19 04:51:19;;;;;;;1.85;0.73;;;1.40;99.90;;;-0.44;100.00;100887.59;4967722;28;20505;-72
2022/11/19 04:53:44;;;;;;;2.47;0.82;;;1.40;99.90;;;-0.45;100.00;100886.75;4963381;28;20030;-74
2022/11/19 04:56:10;;;;;;;1.08;0.52;;;1.40;99.90;;;-0.45;100.00;100898.81;4980688;28;20122;-73
2022/11/19 04:58:36;;;;;;;0.25;0.20;;;1.40;99.90;;;-0.47;100.00;100887.63;4965068;28;20813;-73
2022/11/19 05:01:03;;;;;;;0.25;0.20;;;1.40;99.90;;;-0.47;100.00;100891.06;4967442;28;20448;-73
2022/11/19 05:03:29;;;;;;;0.55;0.30;;;1.40;99.90;;;-0.42;100.00;100891.06;4968202;28;20034;-74
2022/11/19 05:05:55;;;;;;;2.50;0.60;;;1.40;99.90;;;-0.42;100.00;100885.88;4980188;28;20038;-74
2022/11/19 05:08:24;;;;;;;0.52;0.30;;;1.40;99.90;;;-0.36;100.00;100891.06;4963543;28;20045;-74
2022/11/19 05:10:49;;;;;;;0.10;0.10;;;1.40;99.90;;;-0.39;100.00;100883.28;4980744;28;20431;-74
2022/11/19 05:13:15;;;;;;;1.15;0.30;;;1.40;99.90;;;-0.38;100.00;100879.84;4945466;28;20080;-74
2022/11/19 05:15:41;;;;;;;1.05;0.30;;;1.40;99.90;;;-0.40;100.00;100867.78;4966062;28;20030;-74
2022/11/19 05:18:07;;;;;;;3.00;0.30;;;1.40;99.90;;;-0.36;100.00;100862.59;4965632;28;20069;-74
2022/11/19 05:20:33;;;;;;;0.47;0.28;;;1.40;99.90;;;-0.36;100.00;100857.44;4964344;28;20037;-74
2022/11/19 05:22:59;;;;;;;0.30;0.30;;;1.50;99.90;;;-0.33;100.00;100859.16;4960462;28;20429;-74
2022/11/19 05:25:25;;;;;;;2.25;0.30;;;1.50;99.90;;;-0.33;100.00;100852.25;4965740;28;20039;-74
2022/11/19 05:27:51;;;;;;;1.25;0.30;;;1.50;99.90;;;-0.34;100.00;100847.94;4981391;28;20073;-74
2022/11/19 05:30:16;;;;;;;0.98;0.50;;;1.50;99.90;;;-0.33;100.00;100843.63;4948895;28;20049;-74
2022/11/19 05:32:42;;;;;;;0.68;0.52;;;1.50;99.90;;;-0.33;100.00;100851.38;4962503;28;20109;-74
2022/11/19 05:35:08;;;;;;;0.40;0.30;;;1.50;99.90;;;-0.31;100.00;100840.16;4961642;28;20113;-74
2022/11/19 05:37:34;;;;;;;0.40;0.40;;;1.50;99.90;;;-0.22;100.00;100840.19;4950755;28;20026;-74
2022/11/19 05:40:00;;;;;;;1.33;0.80;;;1.60;99.90;;;-0.15;100.00;100835.88;4964747;28;20403;-74
2022/11/19 05:42:26;;;;;;;1.40;0.88;;;1.60;99.90;;;-0.12;100.00;100835.00;4950790;28;20100;-74
2022/11/19 05:44:51;;;;;;;2.17;1.20;;;1.60;99.90;;;-0.11;100.00;100826.34;4963552;28;20499;-74
2022/11/19 05:47:18;;;;;;;3.58;1.60;;;1.60;99.90;;;-0.12;100.00;100820.31;4946216;28;20041;-74
2022/11/19 05:49:44;;;;;;;2.85;1.42;;;1.60;99.90;;;-0.13;100.00;100822.91;4967456;28;20038;-74
2022/11/19 05:52:10;;;;;;;1.80;1.20;;;1.60;99.90;;;-0.21;100.00;100818.59;4963512;28;20114;-74
2022/11/19 05:54:36;;;;;;;3.30;2.03;;;1.50;99.90;;;-0.31;100.00;100827.22;4949505;28;20065;-75
2022/11/19 05:57:04;;;;;;;4.60;2.55;;;1.50;99.90;;;-0.32;100.00;100816.91;4960242;28;20054;-74
2022/11/19 05:59:30;;;;;;;6.63;3.35;;;1.50;99.90;;;-0.33;100.00;100822.94;4963079;28;20038;-74
2022/11/19 06:01:56;;;;;;;4.72;2.75;;;1.50;99.90;;;-0.33;100.00;100820.34;4945889;28;20061;-74
2022/11/19 06:04:24;;;;;;;10.93;3.45;;;1.40;99.90;;;-0.39;100.00;100812.56;4954453;28;20035;-73
2022/11/19 06:06:50;;;;;;;6.45;2.97;;;1.40;99.90;;;-0.50;100.00;100805.66;4966534;28;20046;-74
2022/11/19 06:09:16;;;;;;;4.53;2.70;;;1.30;99.90;;;-0.59;100.00;100813.44;4963700;28;20125;-74
2022/11/19 06:11:49;;;;;;;7.90;3.90;;;1.30;99.90;;;-0.66;100.00;100812.56;4978617;28;20681;-74
2022/11/19 06:14:23;;;;;;;4.13;2.42;;;1.20;99.90;;;-0.77;100.00;100803.94;4964826;28;20045;-73
2022/11/19 06:16:58;;;;;;;5.53;3.20;;;1.10;99.90;;;-0.86;100.00;100803.94;4979418;28;20042;-73
2022/11/19 06:19:25;;;;;;;6.22;3.47;;;1.00;99.90;;;-0.93;100.00;100799.59;4968576;28;20057;-74
2022/11/19 06:21:52;;;;;;;6.00;3.17;;;1.00;99.90;;;-1.00;100.00;100797.88;4976729;28;20209;-73
2022/11/19 06:24:18;;;;;;;8.48;4.60;;;0.90;99.90;;;-1.09;100.00;100797.00;4965139;28;20054;-73
2022/11/19 06:26:44;;;;;;;3.92;2.45;;;0.80;99.90;;;-1.10;100.00;100784.94;4949232;28;20035;-74
2022/11/19 06:29:13;;;;;;;3.03;1.70;;;0.80;99.90;;;-1.17;100.00;100787.50;4966189;28;20570;-73
2022/11/19 06:31:39;;;;;;;4.55;2.50;;;0.80;99.90;;;-1.17;100.00;100787.50;4965172;28;20027;-73
2022/11/19 06:34:05;;;;;;;5.53;2.30;;;0.80;99.90;;;-1.14;100.00;100785.78;4961200;28;20037;-73
2022/11/19 06:36:31;;;;;;;5.20;2.63;;;0.70;99.90;;;-1.13;100.00;100789.22;4978948;28;20687;-74
2022/11/19 06:38:57;;;;;;;7.93;3.70;;;0.80;99.90;;;-1.11;100.00;100790.97;4965079;28;20114;-74
2022/11/19 06:41:23;;;;;;;4.68;2.55;;;0.80;99.90;;;-1.09;100.00;100788.38;4967209;28;20041;-74
2022/11/19 06:43:48;;;;;;;3.45;1.80;;;0.80;99.90;;;-1.10;100.00;100790.13;4967687;28;20483;-73
2022/11/19 06:46:15;;;;;;;8.70;2.10;;;0.70;99.90;;;-1.08;100.00;100780.66;4967399;28;20054;-74
2022/11/19 06:48:41;;;;;;;4.13;1.67;;;0.80;99.90;;;-1.03;100.00;100785.81;4964997;28;20045;-73
2022/11/19 06:51:07;;;;;;;6.03;3.10;;;0.80;99.90;;;-0.98;100.00;100778.06;4968676;28;20407;-73
2022/11/19 06:53:34;;;;;;;4.15;2.15;;;0.90;99.90;;;-0.92;100.00;100783.25;4967446;28;20059;-73
2022/11/19 06:56:04;;;;;;;2.40;1.75;;;0.90;99.90;;;-0.90;100.00;100772.03;4968705;28;20030;-73
2022/11/19 06:58:32;;;;;;;2.03;1.40;;;1.00;99.90;;;-0.85;100.00;100783.25;4965519;28;20066;-73
2022/11/19 07:00:58;;;;;;;3.47;1.85;;;1.00;99.90;;;-0.77;100.00;100790.16;4966459;28;20057;-74
2022/11/19 07:03:25;;;;;;;4.30;1.70;;;1.00;99.90;;;-0.71;100.00;100785.00;4985388;28;20119;-73
2022/11/19 07:05:58;;;;;;;5.28;1.92;;;1.10;99.90;;;-0.67;100.00;100797.94;4967185;28;20058;-73
2022/11/19 07:08:25;;;;;;;3.83;1.35;;;1.10;99.90;;;-0.64;100.00;100791.88;4969612;28;20093;-74
2022/11/19 07:10:51;;;;;;;2.15;1.38;;;1.10;99.90;;;-0.62;100.00;100788.44;4966705;28;20066;-73
2022/11/19 07:13:16;;;;;;;2.10;1.65;;;1.20;99.90;;;-0.57;100.00;100785.84;4967774;28;20105;-73
2022/11/19 07:15:42;;;;;;;3.92;1.83;;;1.20;99.90;;;-0.54;100.00;100791.03;4967729;28;20061;-74
2022/11/19 07:18:08;;;;;;;2.95;1.70;;;1.20;99.90;;;-0.52;100.00;100791.91;4967139;28;20117;-74
2022/11/19 07:20:34;;;;;;;3.55;2.13;;;1.20;99.90;;;-0.50;100.00;100784.97;4965027;28;20034;-73
2022/11/19 07:23:00;;;;;;;3.58;1.85;;;1.30;99.90;;;-0.44;100.00;100786.72;4947962;28;20031;-73
2022/11/19 07:25:27;;;;;;;6.32;3.28;;;1.30;99.90;;;-0.36;100.00;100784.13;4964671;28;20037;-74
2022/11/19 07:27:52;;;;;;;4.25;2.53;;;1.40;99.90;;;-0.34;100.00;100791.03;4969677;28;20403;-74
2022/11/19 07:30:18;;;;;;;1999.90;999.90;;;1.40;99.90;;;-0.39;100.00;100792.72;4964588;28;20037;-74
2022/11/19 07:32:44;;;;;;;2.40;1.77;;;1.30;99.90;;;-0.43;100.00;100788.44;4981720;28;20058;-74
2022/11/19 07:35:11;;;;;;;4.85;1.80;;;1.40;99.90;;;-0.43;100.00;100781.53;4966190;28;20042;-74
2022/11/19 07:37:38;;;;;;;4.00;2.22;;;1.30;99.90;;;-0.42;100.00;100779.81;4967144;28;20030;-74
2022/11/19 07:40:05;;;;;;;2.75;1.85;;;1.30;99.90;;;-0.47;100.00;100784.13;4968620;28;20107;-73
2022/11/19 07:42:49;;;;;;;1.85;1.30;;;1.30;99.90;;;-0.49;100.00;100784.13;4968234;28;20042;-74
2022/11/19 07:45:17;;;;;;;3.33;1.85;;;1.30;99.90;;;-0.45;100.00;100792.75;4957877;28;20081;-74
2022/11/19 07:47:43;;;;;;;5.97;2.42;;;1.40;99.90;;;-0.39;100.00;100781.53;4965186;28;20037;-74
2022/11/19 07:50:10;;;;;;;8.57;1.45;;;1.40;99.90;;;-0.35;100.00;100778.06;4967577;28;20026;-75
2022/11/19 07:52:36;;;;;;;3.00;1.35;;;1.50;99.90;;;-0.28;100.00;100777.19;4948293;28;20043;-74
2022/11/19 07:55:02;;;;;;;3.08;1.40;;;1.50;99.90;;;-0.22;100.00;100778.06;4966836;28;20030;-74
2022/11/19 07:57:28;;;;;;;2.05;1.02;;;1.50;99.90;;;-0.18;100.00;100767.72;4947558;28;20042;-73
2022/11/19 07:59:53;;;;;;;4.00;1.23;;;1.60;99.90;;;-0.11;100.00;100772.88;4964395;28;20121;-73
2022/11/19 08:02:19;;;;;;;4.47;2.03;;;1.60;99.90;;;-0.06;100.00;100758.19;4968286;28;20117;-74
2022/11/19 08:04:45;;;;;;;5.47;1.75;;;1.70;99.90;;;-0.03;100.00;100763.34;4969131;28;20141;-74
2022/11/19 08:07:13;;;;;;;3.67;1.70;;;1.70;99.90;;;0.02;100.00;100760.75;4981805;28;20485;-74
2022/11/19 08:09:39;;;;;;;2.58;1.58;;;1.80;99.90;;;0.05;100.00;100754.72;4983569;28;20162;-76
2022/11/19 08:12:11;;;;;;;4.78;1.73;;;1.80;99.90;;;0.06;100.00;100757.28;4966163;28;20537;-74
2022/11/19 08:14:39;;;;;;;5.57;2.50;;;1.80;99.90;;;0.09;100.00;100766.78;4966681;28;20302;-74
2022/11/19 08:19:50;;;;;;;4.93;1.27;;;1.80;99.90;;;0.13;100.00;100761.59;4968476;28;20049;-74
2022/11/19 08:22:16;;;;;;;2.28;1.50;;;1.90;99.90;;;0.17;100.00;100757.25;4962420;28;20046;-75
2022/11/19 08:24:44;;;;;;;3.90;1.60;;;1.90;99.90;;;0.26;100.00;100758.94;4966153;28;20034;-75
2022/11/19 08:27:11;;;;;;;3.92;1.75;;;2.00;99.90;;;0.30;100.00;100758.94;4965803;28;20456;-74
2022/11/19 08:29:40;;;;;;;2.28;1.25;;;2.00;99.90;;;0.39;100.00;100752.88;4964628;28;20050;-74
2022/11/19 08:32:09;;;;;;;2.85;1.63;;;2.10;99.90;;;0.50;100.00;100753.69;4962463;28;20085;-74
2022/11/19 08:34:35;;;;;;;7.32;1.20;;;2.10;99.90;;;0.52;100.00;100751.94;4965071;28;20126;-74
2022/11/19 08:37:05;;;;;;;4.00;1.70;;;2.20;99.90;;;0.54;100.00;100745.03;4962738;28;20042;-73
2022/11/19 08:39:31;;;;;;;7.57;1.15;;;2.20;99.90;;;0.58;100.00;100749.31;4967327;28;20046;-73
2022/11/19 08:44:41;;;;;;;2.00;0.88;;;2.30;99.90;;;0.71;100.00;100744.03;4982431;28;20142;-73
2022/11/19 08:47:14;;;;;;;2.25;1.00;;;2.40;99.90;;;0.73;100.00;100739.72;4964330;28;20043;-73
2022/11/19 08:49:45;;;;;;;5.18;0.98;;;2.40;99.90;;;0.81;100.00;100748.31;4963646;28;20043;-74
2022/11/19 08:52:15;;;;;;;3.15;1.23;;;2.50;99.90;;;0.89;100.00;100750.88;4962208;28;20043;-74
2022/11/19 08:54:44;;;;;;;1.95;1.30;;;2.50;99.90;;;0.90;100.00;100743.06;4965700;28;20032;-74
2022/11/19 08:57:10;;;;;;;5.07;1.85;;;2.50;99.90;;;0.92;100.00;100743.06;4965194;28;20022;-74
2022/11/19 08:59:36;;;;;;;4.47;2.20;;;2.60;99.90;;;0.95;100.00;100749.09;4962331;28;20037;-74
2022/11/19 09:02:02;;;;;;;5.65;1.77;;;2.60;99.90;;;1.06;100.00;100745.53;4966300;28;20150;-74
2022/11/19 09:04:28;;;;;;;2.85;1.33;;;2.60;99.90;;;1.06;100.00;100741.25;4947829;28;20070;-76
2022/11/19 09:07:02;;;;;;;6.55;2.20;;;2.70;99.90;;;1.14;100.00;100741.16;4946319;28;20053;-76
2022/11/19 09:09:33;;;;;;;4.80;2.20;;;2.80;99.90;;;1.25;100.00;100741.94;4955299;28;20054;-76
2022/11/19 09:11:59;;;;;;;5.22;2.17;;;2.80;99.90;;;1.34;100.00;100738.41;4981161;28;20054;-76
2022/11/19 09:14:28;;;;;;;6.10;2.10;;;2.90;99.90;;;1.47;100.00;100740.06;4981488;28;20221;-77
2022/11/19 09:16:57;;;;;;;6.30;2.00;;;2.90;99.90;;;1.33;100.00;100737.56;4963542;28;20063;-78
2022/11/19 09:19:23;;;;;;;5.95;1.80;;;2.80;99.90;;;1.18;100.00;100737.69;4982501;28;20145;-76
2022/11/19 09:21:55;;;;;;;6.60;2.42;;;2.80;99.90;;;1.12;100.00;100727.34;4979485;28;20502;-77
2022/11/19 09:24:24;;;;;;;4.60;2.00;;;2.80;99.90;;;1.11;100.00;100725.66;4964326;28;20038;-78
2022/11/19 09:26:53;;;;;;;7.93;2.22;;;2.70;99.90;;;1.11;100.00;100736.03;4966905;28;20042;-77
2022/11/19 09:29:22;;;;;;;6.75;1.63;;;2.70;99.90;;;1.08;100.00;100736.03;4964855;28;20578;-77
2022/11/19 09:31:50;;;;;;;9.55;1.92;;;2.70;99.90;;;1.10;100.00;100736.88;4960567;28;20892;-77
2022/11/19 09:34:23;;;;;;;5.97;2.35;;;2.70;99.90;;;1.13;100.00;100737.72;4952793;28;20710;-78
2022/11/19 09:36:50;;;;;;;5.18;1.45;;;2.70;99.90;;;1.11;100.00;100736.03;4967322;28;20038;-77
2022/11/19 09:39:19;;;;;;;3.53;1.60;;;2.80;99.90;;;1.13;100.00;100737.72;4969469;28;20065;-78
2022/11/19 09:42:05;;;;;;;6.88;3.10;;;2.80;99.90;;;1.14;100.00;100735.97;4964521;28;20419;-78
2022/11/19 09:44:54;;;;;;;5.78;1.80;;;2.80;99.90;;;1.12;100.00;100732.53;4951156;28;20027;-78
2022/11/19 09:47:50;;;;;;;3.22;1.77;;;2.70;99.90;;;1.02;100.00;100727.44;4953881;23;20077;-79
2022/11/19 09:50:25;;;;;;;7.18;2.10;;;2.70;99.90;;;1.01;100.00;100735.22;4953351;28;20023;-80
2022/11/19 09:53:17;;;;;;;4.82;1.30;;;2.70;99.90;;;1.01;100.00;100727.44;4967277;28;20039;-77
2022/11/19 09:55:46;;;;;;;4.70;1.33;;;2.70;99.90;;;1.05;100.00;100739.50;4933988;28;20090;-78
2022/11/19 09:58:41;;;;;;;6.32;1.65;;;2.70;99.90;;;1.14;100.00;100730.78;4943297;28;20117;-78
2022/11/19 10:01:16;;;;;;;4.70;1.25;;;2.80;99.90;;;1.23;100.00;100736.78;4936424;28;20028;-78
2022/11/19 10:03:53;;;;;;;3.78;1.10;;;2.80;99.90;;;1.31;100.00;100734.13;4943646;28;20547;-79
2022/11/19 10:06:47;;;;;;;7.75;1.40;;;2.90;99.90;;;1.35;100.00;100730.63;4943817;28;20070;-77
2022/11/19 10:10:09;;;;;;;1.90;0.70;;;3.00;99.90;;;1.32;100.00;100724.59;4946627;28;20030;-78
2022/11/19 10:13:28;;;;;;;3.15;1.20;;;3.00;99.90;;;1.30;100.00;100735.00;4962425;28;20035;-78
2022/11/19 10:16:40;;;;;;;2.90;1.00;;;3.00;99.90;;;1.28;100.00;100730.69;4866155;29;20124;-80
2022/11/19 10:19:24;;;;;;;10.63;1.50;;;3.00;99.90;;;1.42;100.00;100727.09;4881055;29;20566;-80
2022/11/19 10:22:36;;;;;;;8.73;1.92;;;3.00;99.90;;;1.44;100.00;100730.53;4966985;28;20062;-82
2022/11/19 10:25:11;;;;;;;5.15;1.75;;;3.10;99.90;;;1.49;100.00;100721.84;4953003;28;20733;-80
2022/11/19 10:28:00;;;;;;;4.68;1.52;;;3.10;99.90;;;1.50;100.00;100719.25;5006863;22;20062;-79
2022/11/19 10:30:30;;;;;;;4.80;1.83;;;3.10;99.90;;;1.50;100.00;100721.00;5010194;28;20474;-77
2022/11/19 10:33:45;;;;;;;3.60;1.40;;;3.10;99.90;;;1.41;100.00;100719.34;5005476;28;20131;-77
2022/11/19 10:36:43;;;;;;;1.80;0.98;;;3.10;99.90;;;1.39;100.00;100721.94;4984842;28;20040;-77
2022/11/19 10:39:44;;;;;;;4.70;1.80;;;3.10;99.90;;;1.44;100.00;100720.16;4991652;28;21214;-78
2022/11/19 10:42:35;;;;;;;7.40;1.60;;;3.10;99.90;;;1.47;100.00;100711.50;4987049;28;20086;-78
2022/11/19 10:45:30;;;;;;;5.68;1.10;;;3.10;99.90;;;1.56;100.00;100707.97;4995510;28;20034;-78
2022/11/19 10:48:42;;;;;;;3.42;0.73;;;3.20;99.90;;;1.65;100.00;100697.47;5017399;23;20519;-78
2022/11/19 10:51:35;;;;;;;2.47;0.60;;;3.20;99.90;;;1.68;100.00;100697.44;4984746;28;20495;-78